sensor_id;sensor_type;location;lat;lon;timestamp;P1;durP1;ratioP1;P2;durP2;ratioP2
79137;SDS011;68544;45.566;10.238;2023-04-01T00:00:31;17.90;;;10.05;;
79137;SDS011;68544;45.566;10.238;2023-04-01T00:02:58;14.60;;;9.90;;
79137;SDS011;68544;45.566;10.238;2023-04-01T00:05:23;16.60;;;9.80;;
79137;SDS011;68544;45.566;10.238;2023-04-01T00:07:51;16.42;;;11.35;;
79137;SDS011;68544;45.566;10.238;2023-04-01T00:10:16;14.97;;;11.37;;
79137;SDS011;68544;45.566;10.238;2023-04-01T00:12:42;18.63;;;11.60;;
79137;SDS011;68544;45.566;10.238;2023-04-01T00:15:08;19.73;;;11.75;;
79137;SDS011;68544;45.566;10.238;2023-04-01T00:17:35;16.92;;;10.60;;
79137;SDS011;68544;45.566;10.238;2023-04-01T00:20:01;15.80;;;10.73;;
79137;SDS011;68544;45.566;10.238;2023-04-01T00:22:27;17.48;;;11.63;;
79137;SDS011;68544;45.566;10.238;2023-04-01T00:24:53;17.70;;;12.38;;
79137;SDS011;68544;45.566;10.238;2023-04-01T00:27:19;21.00;;;13.40;;
79137;SDS011;68544;45.566;10.238;2023-04-01T00:29:45;19.67;;;13.93;;
79137;SDS011;68544;45.566;10.238;2023-04-01T00:34:37;22.02;;;13.60;;
79137;SDS011;68544;45.566;10.238;2023-04-01T00:37:02;19.70;;;13.73;;
79137;SDS011;68544;45.566;10.238;2023-04-01T00:41:57;16.67;;;12.48;;
79137;SDS011;68544;45.566;10.238;2023-04-01T00:44:28;15.02;;;10.90;;
79137;SDS011;68544;45.566;10.238;2023-04-01T00:46:56;11.68;;;9.35;;
79137;SDS011;68544;45.566;10.238;2023-04-01T00:49:22;16.48;;;9.45;;
79137;SDS011;68544;45.566;10.238;2023-04-01T00:51:51;11.70;;;8.18;;
79137;SDS011;68544;45.566;10.238;2023-04-01T00:54:19;10.90;;;7.85;;
79137;SDS011;68544;45.566;10.238;2023-04-01T00:56:48;9.93;;;7.40;;
79137;SDS011;68544;45.566;10.238;2023-04-01T00:59:21;11.55;;;7.13;;
79137;SDS011;68544;45.566;10.238;2023-04-01T01:01:49;10.45;;;7.40;;
79137;SDS011;68544;45.566;10.238;2023-04-01T01:04:25;11.27;;;7.40;;
79137;SDS011;68544;45.566;10.238;2023-04-01T01:12:19;11.07;;;6.85;;
79137;SDS011;68544;45.566;10.238;2023-04-01T01:14:55;14.95;;;8.85;;
79137;SDS011;68544;45.566;10.238;2023-04-01T01:22:51;12.63;;;9.60;;
79137;SDS011;68544;45.566;10.238;2023-04-01T01:25:40;11.98;;;7.47;;
79137;SDS011;68544;45.566;10.238;2023-04-01T01:36:14;9.57;;;5.60;;
79137;SDS011;68544;45.566;10.238;2023-04-01T01:38:41;9.63;;;6.05;;
79137;SDS011;68544;45.566;10.238;2023-04-01T01:41:07;9.53;;;6.00;;
79137;SDS011;68544;45.566;10.238;2023-04-01T01:43:38;9.20;;;5.47;;
79137;SDS011;68544;45.566;10.238;2023-04-01T01:46:11;7.43;;;5.45;;
79137;SDS011;68544;45.566;10.238;2023-04-01T01:48:39;8.93;;;5.68;;
79137;SDS011;68544;45.566;10.238;2023-04-01T01:51:08;9.73;;;5.82;;
79137;SDS011;68544;45.566;10.238;2023-04-01T01:53:34;11.30;;;6.40;;
79137;SDS011;68544;45.566;10.238;2023-04-01T01:56:00;10.57;;;6.60;;
79137;SDS011;68544;45.566;10.238;2023-04-01T01:58:29;8.60;;;4.90;;
79137;SDS011;68544;45.566;10.238;2023-04-01T02:01:00;10.20;;;6.72;;
79137;SDS011;68544;45.566;10.238;2023-04-01T02:03:31;10.88;;;7.68;;
79137;SDS011;68544;45.566;10.238;2023-04-01T02:06:00;15.10;;;9.32;;
79137;SDS011;68544;45.566;10.238;2023-04-01T02:08:29;18.52;;;11.32;;
79137;SDS011;68544;45.566;10.238;2023-04-01T02:11:04;13.27;;;9.77;;
79137;SDS011;68544;45.566;10.238;2023-04-01T02:13:37;14.27;;;9.50;;
79137;SDS011;68544;45.566;10.238;2023-04-01T02:16:05;14.30;;;10.00;;
79137;SDS011;68544;45.566;10.238;2023-04-01T02:18:36;13.07;;;9.20;;
79137;SDS011;68544;45.566;10.238;2023-04-01T02:21:03;13.65;;;8.88;;
79137;SDS011;68544;45.566;10.238;2023-04-01T02:23:31;13.82;;;9.05;;
79137;SDS011;68544;45.566;10.238;2023-04-01T02:25:59;16.08;;;9.20;;
79137;SDS011;68544;45.566;10.238;2023-04-01T02:28:25;12.95;;;9.05;;
79137;SDS011;68544;45.566;10.238;2023-04-01T02:30:53;11.70;;;9.00;;
79137;SDS011;68544;45.566;10.238;2023-04-01T02:33:19;11.70;;;8.23;;
79137;SDS011;68544;45.566;10.238;2023-04-01T02:35:46;10.90;;;6.72;;
79137;SDS011;68544;45.566;10.238;2023-04-01T02:38:11;7.67;;;6.83;;
79137;SDS011;68544;45.566;10.238;2023-04-01T02:40:44;9.40;;;7.07;;
79137;SDS011;68544;45.566;10.238;2023-04-01T02:43:11;12.35;;;7.55;;
79137;SDS011;68544;45.566;10.238;2023-04-01T02:45:37;10.37;;;7.27;;
79137;SDS011;68544;45.566;10.238;2023-04-01T02:48:02;11.43;;;7.60;;
79137;SDS011;68544;45.566;10.238;2023-04-01T02:50:28;8.97;;;7.00;;
79137;SDS011;68544;45.566;10.238;2023-04-01T02:52:53;10.03;;;7.67;;
79137;SDS011;68544;45.566;10.238;2023-04-01T02:55:18;6.23;;;5.43;;
79137;SDS011;68544;45.566;10.238;2023-04-01T02:57:44;11.67;;;7.20;;
79137;SDS011;68544;45.566;10.238;2023-04-01T03:00:09;9.70;;;6.93;;
79137;SDS011;68544;45.566;10.238;2023-04-01T03:02:36;9.80;;;7.22;;
79137;SDS011;68544;45.566;10.238;2023-04-01T03:05:03;9.65;;;7.57;;
79137;SDS011;68544;45.566;10.238;2023-04-01T03:07:29;9.52;;;7.35;;
79137;SDS011;68544;45.566;10.238;2023-04-01T03:09:54;9.63;;;7.37;;
79137;SDS011;68544;45.566;10.238;2023-04-01T03:12:19;9.87;;;7.23;;
79137;SDS011;68544;45.566;10.238;2023-04-01T03:14:45;11.87;;;6.73;;
79137;SDS011;68544;45.566;10.238;2023-04-01T03:17:10;10.13;;;7.47;;
79137;SDS011;68544;45.566;10.238;2023-04-01T03:19:36;12.07;;;7.83;;
79137;SDS011;68544;45.566;10.238;2023-04-01T03:22:01;13.80;;;6.77;;
79137;SDS011;68544;45.566;10.238;2023-04-01T03:24:26;10.43;;;7.80;;
79137;SDS011;68544;45.566;10.238;2023-04-01T03:26:51;11.03;;;7.30;;
79137;SDS011;68544;45.566;10.238;2023-04-01T03:29:17;11.07;;;6.90;;
79137;SDS011;68544;45.566;10.238;2023-04-01T03:31:42;10.67;;;6.83;;
79137;SDS011;68544;45.566;10.238;2023-04-01T03:34:08;9.03;;;6.93;;
79137;SDS011;68544;45.566;10.238;2023-04-01T03:36:33;5.95;;;5.18;;
79137;SDS011;68544;45.566;10.238;2023-04-01T03:38:59;9.07;;;5.90;;
79137;SDS011;68544;45.566;10.238;2023-04-01T03:41:24;10.83;;;6.03;;
79137;SDS011;68544;45.566;10.238;2023-04-01T03:43:50;10.20;;;5.47;;
79137;SDS011;68544;45.566;10.238;2023-04-01T03:46:19;7.67;;;5.17;;
79137;SDS011;68544;45.566;10.238;2023-04-01T03:48:45;7.15;;;4.72;;
79137;SDS011;68544;45.566;10.238;2023-04-01T03:51:10;7.30;;;5.40;;
79137;SDS011;68544;45.566;10.238;2023-04-01T03:53:36;7.47;;;4.60;;
79137;SDS011;68544;45.566;10.238;2023-04-01T03:56:05;4.83;;;3.30;;
79137;SDS011;68544;45.566;10.238;2023-04-01T03:58:31;5.53;;;4.70;;
79137;SDS011;68544;45.566;10.238;2023-04-01T04:00:56;5.53;;;4.27;;
79137;SDS011;68544;45.566;10.238;2023-04-01T04:03:22;5.57;;;3.63;;
79137;SDS011;68544;45.566;10.238;2023-04-01T04:05:48;8.32;;;4.55;;
79137;SDS011;68544;45.566;10.238;2023-04-01T04:08:14;6.88;;;3.90;;
79137;SDS011;68544;45.566;10.238;2023-04-01T04:10:40;6.50;;;4.57;;
79137;SDS011;68544;45.566;10.238;2023-04-01T04:13:06;7.63;;;4.40;;
79137;SDS011;68544;45.566;10.238;2023-04-01T04:15:31;8.47;;;4.47;;
79137;SDS011;68544;45.566;10.238;2023-04-01T04:17:57;5.73;;;4.07;;
79137;SDS011;68544;45.566;10.238;2023-04-01T04:20:22;6.23;;;4.30;;
79137;SDS011;68544;45.566;10.238;2023-04-01T04:22:47;6.77;;;3.70;;
79137;SDS011;68544;45.566;10.238;2023-04-01T04:25:13;7.43;;;4.00;;
79137;SDS011;68544;45.566;10.238;2023-04-01T04:27:38;5.87;;;4.03;;
79137;SDS011;68544;45.566;10.238;2023-04-01T04:30:05;6.03;;;4.45;;
79137;SDS011;68544;45.566;10.238;2023-04-01T04:32:31;6.43;;;5.20;;
79137;SDS011;68544;45.566;10.238;2023-04-01T04:34:56;9.93;;;5.90;;
79137;SDS011;68544;45.566;10.238;2023-04-01T04:37:22;8.07;;;5.23;;
79137;SDS011;68544;45.566;10.238;2023-04-01T04:39:47;7.90;;;5.53;;
79137;SDS011;68544;45.566;10.238;2023-04-01T04:42:12;8.07;;;5.40;;
79137;SDS011;68544;45.566;10.238;2023-04-01T04:44:38;7.97;;;5.37;;
79137;SDS011;68544;45.566;10.238;2023-04-01T04:47:04;6.65;;;4.40;;
79137;SDS011;68544;45.566;10.238;2023-04-01T04:49:30;6.97;;;4.10;;
79137;SDS011;68544;45.566;10.238;2023-04-01T04:51:56;6.25;;;4.30;;
79137;SDS011;68544;45.566;10.238;2023-04-01T04:54:21;7.43;;;4.80;;
79137;SDS011;68544;45.566;10.238;2023-04-01T04:56:46;7.80;;;3.83;;
79137;SDS011;68544;45.566;10.238;2023-04-01T04:59:12;6.63;;;4.70;;
79137;SDS011;68544;45.566;10.238;2023-04-01T05:01:37;8.87;;;4.60;;
79137;SDS011;68544;45.566;10.238;2023-04-01T05:04:03;6.78;;;4.82;;
79137;SDS011;68544;45.566;10.238;2023-04-01T05:06:29;7.67;;;5.60;;
79137;SDS011;68544;45.566;10.238;2023-04-01T05:08:54;11.13;;;6.63;;
79137;SDS011;68544;45.566;10.238;2023-04-01T05:11:20;9.52;;;6.45;;
79137;SDS011;68544;45.566;10.238;2023-04-01T05:13:46;9.75;;;6.05;;
79137;SDS011;68544;45.566;10.238;2023-04-01T05:16:12;8.90;;;5.03;;
79137;SDS011;68544;45.566;10.238;2023-04-01T05:18:40;7.72;;;4.93;;
79137;SDS011;68544;45.566;10.238;2023-04-01T05:21:06;6.90;;;5.03;;
79137;SDS011;68544;45.566;10.238;2023-04-01T05:23:33;7.75;;;4.90;;
79137;SDS011;68544;45.566;10.238;2023-04-01T05:25:59;8.40;;;5.13;;
79137;SDS011;68544;45.566;10.238;2023-04-01T05:28:28;7.97;;;4.72;;
79137;SDS011;68544;45.566;10.238;2023-04-01T05:30:53;6.93;;;4.67;;
79137;SDS011;68544;45.566;10.238;2023-04-01T05:33:19;7.83;;;4.40;;
79137;SDS011;68544;45.566;10.238;2023-04-01T05:35:44;8.37;;;3.47;;
79137;SDS011;68544;45.566;10.238;2023-04-01T05:38:09;12.07;;;4.30;;
79137;SDS011;68544;45.566;10.238;2023-04-01T05:40:35;7.87;;;4.33;;
79137;SDS011;68544;45.566;10.238;2023-04-01T05:43:00;6.00;;;3.77;;
79137;SDS011;68544;45.566;10.238;2023-04-01T05:45:26;6.10;;;3.70;;
79137;SDS011;68544;45.566;10.238;2023-04-01T05:47:51;7.30;;;3.85;;
79137;SDS011;68544;45.566;10.238;2023-04-01T05:50:17;5.87;;;4.40;;
79137;SDS011;68544;45.566;10.238;2023-04-01T05:52:43;6.55;;;4.80;;
79137;SDS011;68544;45.566;10.238;2023-04-01T05:55:09;6.65;;;4.60;;
79137;SDS011;68544;45.566;10.238;2023-04-01T05:57:34;7.50;;;4.80;;
79137;SDS011;68544;45.566;10.238;2023-04-01T06:00:00;6.63;;;4.47;;
79137;SDS011;68544;45.566;10.238;2023-04-01T06:02:25;5.27;;;3.77;;
79137;SDS011;68544;45.566;10.238;2023-04-01T06:04:54;9.93;;;4.30;;
79137;SDS011;68544;45.566;10.238;2023-04-01T06:07:28;8.65;;;4.30;;
79137;SDS011;68544;45.566;10.238;2023-04-01T06:09:53;5.40;;;3.30;;
79137;SDS011;68544;45.566;10.238;2023-04-01T06:15:10;7.80;;;3.63;;
79137;SDS011;68544;45.566;10.238;2023-04-01T06:18:00;4.95;;;3.33;;
79137;SDS011;68544;45.566;10.238;2023-04-01T06:29:35;6.75;;;3.80;;
79137;SDS011;68544;45.566;10.238;2023-04-01T06:43:29;5.75;;;3.33;;
79137;SDS011;68544;45.566;10.238;2023-04-01T06:49:28;3.97;;;2.70;;
79137;SDS011;68544;45.566;10.238;2023-04-01T06:54:11;6.37;;;3.07;;
79137;SDS011;68544;45.566;10.238;2023-04-01T06:56:42;5.00;;;2.63;;
79137;SDS011;68544;45.566;10.238;2023-04-01T06:59:22;5.07;;;2.58;;
79137;SDS011;68544;45.566;10.238;2023-04-01T07:01:52;5.85;;;2.58;;
79137;SDS011;68544;45.566;10.238;2023-04-01T07:04:40;5.25;;;2.80;;
79137;SDS011;68544;45.566;10.238;2023-04-01T07:07:15;6.55;;;2.70;;
79137;SDS011;68544;45.566;10.238;2023-04-01T07:09:50;5.18;;;2.97;;
79137;SDS011;68544;45.566;10.238;2023-04-01T07:12:39;4.47;;;2.60;;
79137;SDS011;68544;45.566;10.238;2023-04-01T07:15:13;3.58;;;2.67;;
79137;SDS011;68544;45.566;10.238;2023-04-01T07:17:43;4.65;;;2.50;;
79137;SDS011;68544;45.566;10.238;2023-04-01T07:22:54;4.95;;;2.30;;
79137;SDS011;68544;45.566;10.238;2023-04-01T07:25:30;3.85;;;2.28;;
79137;SDS011;68544;45.566;10.238;2023-04-01T07:28:04;4.65;;;2.00;;
79137;SDS011;68544;45.566;10.238;2023-04-01T07:31:02;3.83;;;2.17;;
79137;SDS011;68544;45.566;10.238;2023-04-01T07:38:59;5.18;;;2.80;;
79137;SDS011;68544;45.566;10.238;2023-04-01T07:44:47;4.18;;;2.65;;
79137;SDS011;68544;45.566;10.238;2023-04-01T07:58:57;7.13;;;3.50;;
79137;SDS011;68544;45.566;10.238;2023-04-01T08:01:49;5.35;;;3.63;;
79137;SDS011;68544;45.566;10.238;2023-04-01T08:04:48;5.00;;;3.38;;
79137;SDS011;68544;45.566;10.238;2023-04-01T08:10:13;4.05;;;2.70;;
79137;SDS011;68544;45.566;10.238;2023-04-01T08:15:49;3.58;;;2.35;;
79137;SDS011;68544;45.566;10.238;2023-04-01T08:21:17;6.20;;;2.63;;
79137;SDS011;68544;45.566;10.238;2023-04-01T08:23:54;6.07;;;2.95;;
79137;SDS011;68544;45.566;10.238;2023-04-01T08:28:52;6.20;;;2.70;;
79137;SDS011;68544;45.566;10.238;2023-04-01T08:33:56;5.05;;;2.38;;
79137;SDS011;68544;45.566;10.238;2023-04-01T08:36:32;4.57;;;2.53;;
79137;SDS011;68544;45.566;10.238;2023-04-01T08:52:34;5.15;;;4.22;;
79137;SDS011;68544;45.566;10.238;2023-04-01T08:58:19;6.45;;;4.85;;
79137;SDS011;68544;45.566;10.238;2023-04-01T09:01:24;6.45;;;4.47;;
79137;SDS011;68544;45.566;10.238;2023-04-01T09:12:30;2.78;;;1.55;;
79137;SDS011;68544;45.566;10.238;2023-04-01T09:17:48;4.93;;;1.75;;
79137;SDS011;68544;45.566;10.238;2023-04-01T09:20:46;2.28;;;1.40;;
79137;SDS011;68544;45.566;10.238;2023-04-01T09:23:53;3.38;;;1.60;;
79137;SDS011;68544;45.566;10.238;2023-04-01T09:40:54;4.05;;;2.15;;
79137;SDS011;68544;45.566;10.238;2023-04-01T09:43:25;3.70;;;2.10;;
79137;SDS011;68544;45.566;10.238;2023-04-01T09:49:02;4.45;;;1.83;;
79137;SDS011;68544;45.566;10.238;2023-04-01T09:52:01;2.22;;;1.80;;
79137;SDS011;68544;45.566;10.238;2023-04-01T10:00:20;2.28;;;1.52;;
79137;SDS011;68544;45.566;10.238;2023-04-01T10:06:21;1.95;;;1.45;;
79137;SDS011;68544;45.566;10.238;2023-04-01T10:25:53;3.25;;;1.80;;
79137;SDS011;68544;45.566;10.238;2023-04-01T10:31:24;2.33;;;1.53;;
79137;SDS011;68544;45.566;10.238;2023-04-01T10:39:34;2.47;;;1.50;;
79137;SDS011;68544;45.566;10.238;2023-04-01T10:42:10;1.60;;;1.50;;
79137;SDS011;68544;45.566;10.238;2023-04-01T10:48:08;3.83;;;1.77;;
79137;SDS011;68544;45.566;10.238;2023-04-01T11:07:48;6.57;;;2.63;;
79137;SDS011;68544;45.566;10.238;2023-04-01T11:10:57;3.92;;;2.13;;
79137;SDS011;68544;45.566;10.238;2023-04-01T11:32:52;4.38;;;2.33;;
79137;SDS011;68544;45.566;10.238;2023-04-01T11:55:28;2.38;;;2.17;;
79137;SDS011;68544;45.566;10.238;2023-04-01T11:57:59;4.03;;;2.13;;
79137;SDS011;68544;45.566;10.238;2023-04-01T12:03:21;3.70;;;1.83;;
79137;SDS011;68544;45.566;10.238;2023-04-01T12:08:52;5.07;;;1.60;;
79137;SDS011;68544;45.566;10.238;2023-04-01T12:14:03;3.38;;;1.10;;
79137;SDS011;68544;45.566;10.238;2023-04-01T12:16:41;3.15;;;1.30;;
79137;SDS011;68544;45.566;10.238;2023-04-01T12:27:53;4.40;;;1.10;;
79137;SDS011;68544;45.566;10.238;2023-04-01T12:30:30;2.05;;;0.98;;
79137;SDS011;68544;45.566;10.238;2023-04-01T12:35:56;3.20;;;1.20;;
79137;SDS011;68544;45.566;10.238;2023-04-01T12:38:44;4.75;;;0.90;;
79137;SDS011;68544;45.566;10.238;2023-04-01T12:41:26;2.38;;;1.25;;
79137;SDS011;68544;45.566;10.238;2023-04-01T12:47:40;3.03;;;0.93;;
79137;SDS011;68544;45.566;10.238;2023-04-01T12:50:40;4.03;;;1.60;;
79137;SDS011;68544;45.566;10.238;2023-04-01T12:56:02;5.55;;;1.20;;
79137;SDS011;68544;45.566;10.238;2023-04-01T13:04:22;1.50;;;0.98;;
79137;SDS011;68544;45.566;10.238;2023-04-01T13:06:59;1.67;;;1.05;;
79137;SDS011;68544;45.566;10.238;2023-04-01T13:21:34;2.92;;;0.63;;
79137;SDS011;68544;45.566;10.238;2023-04-01T13:27:09;6.45;;;0.80;;
79137;SDS011;68544;45.566;10.238;2023-04-01T13:48:18;2.40;;;0.50;;
79137;SDS011;68544;45.566;10.238;2023-04-01T13:56:42;2.38;;;0.73;;
79137;SDS011;68544;45.566;10.238;2023-04-01T14:02:14;2.47;;;0.63;;
79137;SDS011;68544;45.566;10.238;2023-04-01T14:04:47;4.30;;;0.80;;
79137;SDS011;68544;45.566;10.238;2023-04-01T14:15:50;1.00;;;0.50;;
79137;SDS011;68544;45.566;10.238;2023-04-01T14:18:42;1.23;;;0.50;;
79137;SDS011;68544;45.566;10.238;2023-04-01T14:21:36;1.35;;;0.50;;
79137;SDS011;68544;45.566;10.238;2023-04-01T14:24:18;0.85;;;0.65;;
79137;SDS011;68544;45.566;10.238;2023-04-01T14:27:13;1.43;;;0.70;;
79137;SDS011;68544;45.566;10.238;2023-04-01T14:29:54;4.32;;;0.57;;
79137;SDS011;68544;45.566;10.238;2023-04-01T14:51:46;2.15;;;0.60;;
79137;SDS011;68544;45.566;10.238;2023-04-01T14:54:13;1.52;;;0.60;;
79137;SDS011;68544;45.566;10.238;2023-04-01T14:57:05;3.15;;;0.73;;
79137;SDS011;68544;45.566;10.238;2023-04-01T15:05:27;0.82;;;0.47;;
79137;SDS011;68544;45.566;10.238;2023-04-01T15:08:17;2.05;;;0.40;;
79137;SDS011;68544;45.566;10.238;2023-04-01T15:10:49;0.80;;;0.47;;
79137;SDS011;68544;45.566;10.238;2023-04-01T15:37:49;2.25;;;0.70;;
79137;SDS011;68544;45.566;10.238;2023-04-01T15:40:41;1.52;;;0.60;;
79137;SDS011;68544;45.566;10.238;2023-04-01T15:46:09;2.35;;;0.60;;
79137;SDS011;68544;45.566;10.238;2023-04-01T15:57:28;1.50;;;0.60;;
79137;SDS011;68544;45.566;10.238;2023-04-01T16:12:04;3.28;;;0.80;;
79137;SDS011;68544;45.566;10.238;2023-04-01T16:17:47;1.65;;;0.80;;
79137;SDS011;68544;45.566;10.238;2023-04-01T16:20:20;1.52;;;0.52;;
79137;SDS011;68544;45.566;10.238;2023-04-01T16:33:30;3.30;;;0.88;;
79137;SDS011;68544;45.566;10.238;2023-04-01T16:36:10;1.23;;;0.60;;
79137;SDS011;68544;45.566;10.238;2023-04-01T16:42:16;2.80;;;1.73;;
79137;SDS011;68544;45.566;10.238;2023-04-01T16:45:08;3.65;;;1.67;;
79137;SDS011;68544;45.566;10.238;2023-04-01T16:47:53;6.60;;;4.13;;
79137;SDS011;68544;45.566;10.238;2023-04-01T16:50:30;3.38;;;2.05;;
79137;SDS011;68544;45.566;10.238;2023-04-01T16:55:48;3.87;;;2.50;;
79137;SDS011;68544;45.566;10.238;2023-04-01T16:58:18;4.38;;;1.70;;
79137;SDS011;68544;45.566;10.238;2023-04-01T17:00:50;4.18;;;2.30;;
79137;SDS011;68544;45.566;10.238;2023-04-01T17:03:22;2.80;;;1.50;;
79137;SDS011;68544;45.566;10.238;2023-04-01T17:06:12;4.10;;;1.15;;
79137;SDS011;68544;45.566;10.238;2023-04-01T17:11:57;4.78;;;2.00;;
79137;SDS011;68544;45.566;10.238;2023-04-01T17:17:19;3.75;;;1.00;;
79137;SDS011;68544;45.566;10.238;2023-04-01T17:22:43;3.33;;;1.10;;
79137;SDS011;68544;45.566;10.238;2023-04-01T17:31:32;2.88;;;1.30;;
79137;SDS011;68544;45.566;10.238;2023-04-01T17:45:45;6.70;;;2.47;;
79137;SDS011;68544;45.566;10.238;2023-04-01T17:50:49;4.47;;;1.20;;
79137;SDS011;68544;45.566;10.238;2023-04-01T17:58:59;2.80;;;1.63;;
79137;SDS011;68544;45.566;10.238;2023-04-01T18:04:25;4.85;;;0.98;;
79137;SDS011;68544;45.566;10.238;2023-04-01T18:07:08;4.75;;;1.05;;
79137;SDS011;68544;45.566;10.238;2023-04-01T18:21:19;3.78;;;1.02;;
79137;SDS011;68544;45.566;10.238;2023-04-01T18:23:56;6.20;;;1.60;;
79137;SDS011;68544;45.566;10.238;2023-04-01T18:26:27;3.95;;;1.23;;
79137;SDS011;68544;45.566;10.238;2023-04-01T18:28:57;4.82;;;1.83;;
79137;SDS011;68544;45.566;10.238;2023-04-01T18:31:32;2.67;;;1.33;;
79137;SDS011;68544;45.566;10.238;2023-04-01T18:34:07;3.30;;;1.73;;
79137;SDS011;68544;45.566;10.238;2023-04-01T18:37:12;4.30;;;1.67;;
79137;SDS011;68544;45.566;10.238;2023-04-01T18:39:57;2.70;;;1.10;;
79137;SDS011;68544;45.566;10.238;2023-04-01T18:45:57;5.80;;;1.42;;
79137;SDS011;68544;45.566;10.238;2023-04-01T18:47:56;3.60;;;1.10;;
79137;SDS011;68544;45.566;10.238;2023-04-01T18:56:15;2.53;;;1.30;;
79137;SDS011;68544;45.566;10.238;2023-04-01T18:58:57;3.70;;;1.25;;
79137;SDS011;68544;45.566;10.238;2023-04-01T19:01:41;2.30;;;1.25;;
79137;SDS011;68544;45.566;10.238;2023-04-01T19:06:56;3.28;;;2.00;;
79137;SDS011;68544;45.566;10.238;2023-04-01T19:17:47;5.80;;;3.85;;
79137;SDS011;68544;45.566;10.238;2023-04-01T19:20:32;8.88;;;5.28;;
79137;SDS011;68544;45.566;10.238;2023-04-01T19:28:13;7.13;;;4.37;;
79137;SDS011;68544;45.566;10.238;2023-04-01T19:30:53;7.65;;;3.85;;
79137;SDS011;68544;45.566;10.238;2023-04-01T19:33:35;7.68;;;3.50;;
79137;SDS011;68544;45.566;10.238;2023-04-01T19:41:44;5.90;;;3.15;;
79137;SDS011;68544;45.566;10.238;2023-04-01T19:57:30;3.08;;;1.50;;
79137;SDS011;68544;45.566;10.238;2023-04-01T20:05:23;4.20;;;1.40;;
79137;SDS011;68544;45.566;10.238;2023-04-01T20:08:02;3.40;;;1.23;;
79137;SDS011;68544;45.566;10.238;2023-04-01T20:13:32;4.35;;;3.20;;
79137;SDS011;68544;45.566;10.238;2023-04-01T20:16:11;4.57;;;2.75;;
79137;SDS011;68544;45.566;10.238;2023-04-01T20:21:41;5.55;;;3.83;;
79137;SDS011;68544;45.566;10.238;2023-04-01T20:26:40;6.07;;;3.15;;
79137;SDS011;68544;45.566;10.238;2023-04-01T20:37:49;3.67;;;2.20;;
79137;SDS011;68544;45.566;10.238;2023-04-01T20:43:06;3.78;;;2.13;;
79137;SDS011;68544;45.566;10.238;2023-04-01T20:51:39;5.00;;;2.22;;
79137;SDS011;68544;45.566;10.238;2023-04-01T20:57:06;7.07;;;2.30;;
79137;SDS011;68544;45.566;10.238;2023-04-01T21:00:11;2.97;;;1.95;;
79137;SDS011;68544;45.566;10.238;2023-04-01T21:11:38;4.05;;;2.30;;
79137;SDS011;68544;45.566;10.238;2023-04-01T21:17:17;5.30;;;2.53;;
79137;SDS011;68544;45.566;10.238;2023-04-01T21:20:01;6.07;;;2.60;;
79137;SDS011;68544;45.566;10.238;2023-04-01T21:22:47;4.03;;;2.33;;
79137;SDS011;68544;45.566;10.238;2023-04-01T21:25:22;4.30;;;2.70;;
79137;SDS011;68544;45.566;10.238;2023-04-01T21:27:56;4.10;;;2.40;;
79137;SDS011;68544;45.566;10.238;2023-04-01T21:36:25;5.28;;;2.20;;
79137;SDS011;68544;45.566;10.238;2023-04-01T22:00:38;11.18;;;3.30;;
79137;SDS011;68544;45.566;10.238;2023-04-01T22:05:55;8.85;;;4.85;;
79137;SDS011;68544;45.566;10.238;2023-04-01T22:16:29;7.80;;;6.60;;
79137;SDS011;68544;45.566;10.238;2023-04-01T22:19:19;8.60;;;6.65;;
79137;SDS011;68544;45.566;10.238;2023-04-01T22:24:31;12.25;;;8.32;;
79137;SDS011;68544;45.566;10.238;2023-04-01T22:27:07;10.75;;;6.72;;
79137;SDS011;68544;45.566;10.238;2023-04-01T22:32:36;10.07;;;7.93;;
79137;SDS011;68544;45.566;10.238;2023-04-01T22:38:06;11.20;;;6.65;;
79137;SDS011;68544;45.566;10.238;2023-04-01T22:43:30;7.03;;;5.60;;
79137;SDS011;68544;45.566;10.238;2023-04-01T22:46:05;9.48;;;7.53;;
79137;SDS011;68544;45.566;10.238;2023-04-01T22:48:37;7.78;;;6.63;;
79137;SDS011;68544;45.566;10.238;2023-04-01T22:53:57;8.88;;;5.97;;
79137;SDS011;68544;45.566;10.238;2023-04-01T22:56:49;9.40;;;6.57;;
79137;SDS011;68544;45.566;10.238;2023-04-01T23:02:28;8.77;;;6.15;;
79137;SDS011;68544;45.566;10.238;2023-04-01T23:04:59;6.57;;;5.28;;
79137;SDS011;68544;45.566;10.238;2023-04-01T23:07:30;6.45;;;5.20;;
79137;SDS011;68544;45.566;10.238;2023-04-01T23:10:14;7.53;;;5.65;;
79137;SDS011;68544;45.566;10.238;2023-04-01T23:12:45;7.90;;;5.32;;
79137;SDS011;68544;45.566;10.238;2023-04-01T23:15:13;8.75;;;5.15;;
79137;SDS011;68544;45.566;10.238;2023-04-01T23:17:46;6.82;;;4.43;;
79137;SDS011;68544;45.566;10.238;2023-04-01T23:26:10;6.28;;;4.10;;
79137;SDS011;68544;45.566;10.238;2023-04-01T23:34:05;7.68;;;5.18;;
79137;SDS011;68544;45.566;10.238;2023-04-01T23:41:58;5.55;;;3.38;;
79137;SDS011;68544;45.566;10.238;2023-04-01T23:44:27;8.90;;;4.10;;
79137;SDS011;68544;45.566;10.238;2023-04-01T23:46:54;4.18;;;3.20;;
79137;SDS011;68544;45.566;10.238;2023-04-01T23:49:25;5.80;;;2.85;;
79137;SDS011;68544;45.566;10.238;2023-04-01T23:51:57;4.03;;;2.90;;
79137;SDS011;68544;45.566;10.238;2023-04-01T23:54:29;4.40;;;2.50;;
79137;SDS011;68544;45.566;10.238;2023-04-01T23:56:58;4.07;;;2.53;;
79137;SDS011;68544;45.566;10.238;2023-04-01T23:59:30;3.85;;;2.08;;
